sensor_id;sensor_type;location;lat;lon;timestamp;pressure;altitude;pressure_sealevel;temperature;humidity
64632;BME280;58358;50.936;0.246;2024-03-17T00:00:14;101378.16;;;11.21;100.00
64632;BME280;58358;50.936;0.246;2024-03-17T00:02:39;101372.17;;;12.12;100.00
64632;BME280;58358;50.936;0.246;2024-03-17T00:05:06;101369.38;;;11.96;100.00
64632;BME280;58358;50.936;0.246;2024-03-17T00:07:31;101368.27;;;12.32;100.00
64632;BME280;58358;50.936;0.246;2024-03-17T00:09:56;101364.01;;;11.84;100.00
64632;BME280;58358;50.936;0.246;2024-03-17T00:12:22;101355.08;;;11.82;100.00
64632;BME280;58358;50.936;0.246;2024-03-17T00:14:47;101350.66;;;11.82;100.00
64632;BME280;58358;50.936;0.246;2024-03-17T00:17:13;101343.48;;;12.34;100.00
64632;BME280;58358;50.936;0.246;2024-03-17T00:19:38;101343.51;;;12.27;100.00
64632;BME280;58358;50.936;0.246;2024-03-17T00:22:04;101337.76;;;12.08;100.00
64632;BME280;58358;50.936;0.246;2024-03-17T00:24:29;101333.18;;;11.50;100.00
64632;BME280;58358;50.936;0.246;2024-03-17T00:26:55;101328.85;;;12.46;100.00
64632;BME280;58358;50.936;0.246;2024-03-17T00:29:20;101323.31;;;12.44;100.00
64632;BME280;58358;50.936;0.246;2024-03-17T00:31:45;101322.04;;;11.99;100.00
64632;BME280;58358;50.936;0.246;2024-03-17T00:34:11;101318.98;;;12.21;100.00
64632;BME280;58358;50.936;0.246;2024-03-17T00:36:37;101312.28;;;11.82;100.00
64632;BME280;58358;50.936;0.246;2024-03-17T00:39:02;101306.99;;;11.37;100.00
64632;BME280;58358;50.936;0.246;2024-03-17T00:41:28;101306.10;;;11.82;100.00
64632;BME280;58358;50.936;0.246;2024-03-17T00:43:53;101305.41;;;11.96;100.00
64632;BME280;58358;50.936;0.246;2024-03-17T00:46:20;101305.85;;;12.26;100.00
64632;BME280;58358;50.936;0.246;2024-03-17T00:48:48;101304.78;;;12.35;100.00
64632;BME280;58358;50.936;0.246;2024-03-17T00:51:09;101302.54;;;11.87;100.00
64632;BME280;58358;50.936;0.246;2024-03-17T00:53:34;101301.35;;;12.71;100.00
64632;BME280;58358;50.936;0.246;2024-03-17T00:56:00;101297.07;;;12.83;100.00
64632;BME280;58358;50.936;0.246;2024-03-17T00:58:25;101296.80;;;11.42;100.00
64632;BME280;58358;50.936;0.246;2024-03-17T01:00:51;101293.45;;;12.58;100.00
64632;BME280;58358;50.936;0.246;2024-03-17T01:03:16;101284.69;;;12.75;100.00
64632;BME280;58358;50.936;0.246;2024-03-17T01:05:43;101284.59;;;12.11;100.00
64632;BME280;58358;50.936;0.246;2024-03-17T01:08:08;101280.36;;;12.60;100.00
64632;BME280;58358;50.936;0.246;2024-03-17T01:10:33;101276.12;;;12.71;100.00
64632;BME280;58358;50.936;0.246;2024-03-17T01:12:58;101276.74;;;12.31;100.00
64632;BME280;58358;50.936;0.246;2024-03-17T01:15:23;101270.04;;;13.18;100.00
64632;BME280;58358;50.936;0.246;2024-03-17T01:17:49;101265.57;;;11.32;100.00
64632;BME280;58358;50.936;0.246;2024-03-17T01:20:14;101260.36;;;11.47;100.00
64632;BME280;58358;50.936;0.246;2024-03-17T01:22:39;101255.87;;;12.22;100.00
64632;BME280;58358;50.936;0.246;2024-03-17T01:25:05;101256.22;;;11.71;100.00
64632;BME280;58358;50.936;0.246;2024-03-17T01:27:31;101252.90;;;11.82;100.00
64632;BME280;58358;50.936;0.246;2024-03-17T01:29:56;101254.19;;;12.45;100.00
64632;BME280;58358;50.936;0.246;2024-03-17T01:32:22;101250.55;;;12.41;100.00
64632;BME280;58358;50.936;0.246;2024-03-17T01:34:47;101246.01;;;13.35;100.00
64632;BME280;58358;50.936;0.246;2024-03-17T01:37:12;101238.82;;;12.88;100.00
64632;BME280;58358;50.936;0.246;2024-03-17T01:39:38;101235.67;;;12.90;100.00
64632;BME280;58358;50.936;0.246;2024-03-17T01:42:03;101233.73;;;12.43;100.00
64632;BME280;58358;50.936;0.246;2024-03-17T01:44:29;101229.17;;;12.29;100.00
64632;BME280;58358;50.936;0.246;2024-03-17T01:46:54;101226.49;;;13.14;100.00
64632;BME280;58358;50.936;0.246;2024-03-17T01:49:20;101219.98;;;12.96;100.00
64632;BME280;58358;50.936;0.246;2024-03-17T01:51:45;101214.84;;;13.20;100.00
64632;BME280;58358;50.936;0.246;2024-03-17T01:54:11;101215.83;;;13.43;100.00
64632;BME280;58358;50.936;0.246;2024-03-17T01:56:35;101212.78;;;13.73;100.00
64632;BME280;58358;50.936;0.246;2024-03-17T01:59:01;101209.19;;;13.76;100.00
64632;BME280;58358;50.936;0.246;2024-03-17T02:01:27;101207.24;;;13.72;100.00
64632;BME280;58358;50.936;0.246;2024-03-17T02:03:51;101212.17;;;13.69;100.00
64632;BME280;58358;50.936;0.246;2024-03-17T02:06:17;101214.91;;;12.79;100.00
64632;BME280;58358;50.936;0.246;2024-03-17T02:08:48;101214.69;;;13.30;100.00
64632;BME280;58358;50.936;0.246;2024-03-17T02:11:22;101207.66;;;13.55;100.00
64632;BME280;58358;50.936;0.246;2024-03-17T02:13:33;101203.52;;;13.65;100.00
64632;BME280;58358;50.936;0.246;2024-03-17T02:15:58;101203.47;;;13.67;100.00
64632;BME280;58358;50.936;0.246;2024-03-17T02:18:24;101197.86;;;13.18;100.00
64632;BME280;58358;50.936;0.246;2024-03-17T02:20:49;101194.81;;;13.39;100.00
64632;BME280;58358;50.936;0.246;2024-03-17T02:23:15;101194.07;;;13.00;100.00
64632;BME280;58358;50.936;0.246;2024-03-17T02:25:40;101197.71;;;13.69;100.00
64632;BME280;58358;50.936;0.246;2024-03-17T02:28:06;101201.35;;;13.47;100.00
64632;BME280;58358;50.936;0.246;2024-03-17T02:30:31;101197.48;;;13.99;100.00
64632;BME280;58358;50.936;0.246;2024-03-17T02:32:56;101197.01;;;13.80;100.00
64632;BME280;58358;50.936;0.246;2024-03-17T02:35:22;101193.27;;;13.94;100.00
64632;BME280;58358;50.936;0.246;2024-03-17T02:37:47;101194.29;;;13.17;100.00
64632;BME280;58358;50.936;0.246;2024-03-17T02:40:13;101197.62;;;13.22;100.00
64632;BME280;58358;50.936;0.246;2024-03-17T02:42:37;101190.92;;;13.99;100.00
64632;BME280;58358;50.936;0.246;2024-03-17T02:45:04;101191.90;;;13.75;100.00
64632;BME280;58358;50.936;0.246;2024-03-17T02:47:29;101186.77;;;13.42;100.00
64632;BME280;58358;50.936;0.246;2024-03-17T02:49:55;101186.73;;;14.10;100.00
64632;BME280;58358;50.936;0.246;2024-03-17T02:52:20;101180.42;;;14.11;100.00
64632;BME280;58358;50.936;0.246;2024-03-17T02:54:47;101181.84;;;14.26;100.00
64632;BME280;58358;50.936;0.246;2024-03-17T02:57:11;101181.17;;;13.82;100.00
64632;BME280;58358;50.936;0.246;2024-03-17T02:59:37;101178.10;;;14.20;100.00
64632;BME280;58358;50.936;0.246;2024-03-17T03:02:02;101177.49;;;13.19;100.00
64632;BME280;58358;50.936;0.246;2024-03-17T03:04:27;101171.77;;;14.35;100.00
64632;BME280;58358;50.936;0.246;2024-03-17T03:06:52;101169.81;;;14.15;100.00
64632;BME280;58358;50.936;0.246;2024-03-17T03:09:17;101169.71;;;14.42;100.00
64632;BME280;58358;50.936;0.246;2024-03-17T03:11:43;101165.12;;;13.89;100.00
64632;BME280;58358;50.936;0.246;2024-03-17T03:14:08;101160.40;;;14.29;100.00
64632;BME280;58358;50.936;0.246;2024-03-17T03:16:34;101156.11;;;13.40;100.00
64632;BME280;58358;50.936;0.246;2024-03-17T03:18:59;101152.62;;;14.11;100.00
64632;BME280;58358;50.936;0.246;2024-03-17T03:21:24;101150.04;;;14.10;100.00
64632;BME280;58358;50.936;0.246;2024-03-17T03:23:50;101150.36;;;13.03;100.00
64632;BME280;58358;50.936;0.246;2024-03-17T03:26:15;101144.95;;;13.15;100.00
64632;BME280;58358;50.936;0.246;2024-03-17T03:28:40;101142.90;;;12.48;100.00
64632;BME280;58358;50.936;0.246;2024-03-17T03:31:11;101145.18;;;13.01;100.00
64632;BME280;58358;50.936;0.246;2024-03-17T03:33:32;101142.37;;;13.39;100.00
64632;BME280;58358;50.936;0.246;2024-03-17T03:35:57;101139.60;;;13.57;100.00
64632;BME280;58358;50.936;0.246;2024-03-17T03:38:23;101135.22;;;13.92;100.00
64632;BME280;58358;50.936;0.246;2024-03-17T03:40:48;101139.35;;;13.19;100.00
64632;BME280;58358;50.936;0.246;2024-03-17T03:43:14;101134.86;;;13.28;100.00
64632;BME280;58358;50.936;0.246;2024-03-17T03:45:39;101131.80;;;12.92;100.00
64632;BME280;58358;50.936;0.246;2024-03-17T03:48:05;101129.97;;;13.54;100.00
64632;BME280;58358;50.936;0.246;2024-03-17T03:50:30;101131.72;;;13.31;100.00
64632;BME280;58358;50.936;0.246;2024-03-17T03:52:54;101123.90;;;14.14;100.00
64632;BME280;58358;50.936;0.246;2024-03-17T03:55:20;101126.74;;;13.43;100.00
64632;BME280;58358;50.936;0.246;2024-03-17T03:57:45;101126.67;;;13.32;100.00
64632;BME280;58358;50.936;0.246;2024-03-17T04:00:11;101120.87;;;12.99;100.00
64632;BME280;58358;50.936;0.246;2024-03-17T04:02:36;101118.87;;;12.83;100.00
64632;BME280;58358;50.936;0.246;2024-03-17T04:05:01;101114.06;;;13.34;100.00
64632;BME280;58358;50.936;0.246;2024-03-17T04:07:27;101108.39;;;13.78;100.00
64632;BME280;58358;50.936;0.246;2024-03-17T04:09:52;101095.50;;;14.11;100.00
64632;BME280;58358;50.936;0.246;2024-03-17T04:12:18;101098.58;;;13.72;100.00
64632;BME280;58358;50.936;0.246;2024-03-17T04:14:43;101093.40;;;13.40;100.00
64632;BME280;58358;50.936;0.246;2024-03-17T04:17:09;101094.57;;;13.54;100.00
64632;BME280;58358;50.936;0.246;2024-03-17T04:19:35;101093.89;;;13.59;100.00
64632;BME280;58358;50.936;0.246;2024-03-17T04:22:00;101093.36;;;13.78;100.00
64632;BME280;58358;50.936;0.246;2024-03-17T04:24:26;101095.53;;;13.23;100.00
64632;BME280;58358;50.936;0.246;2024-03-17T04:26:52;101095.42;;;13.81;100.00
64632;BME280;58358;50.936;0.246;2024-03-17T04:29:16;101099.11;;;13.45;100.00
64632;BME280;58358;50.936;0.246;2024-03-17T04:31:41;101093.61;;;13.59;100.00
64632;BME280;58358;50.936;0.246;2024-03-17T04:34:06;101086.93;;;14.43;100.00
64632;BME280;58358;50.936;0.246;2024-03-17T04:36:32;101083.83;;;13.99;100.00
64632;BME280;58358;50.936;0.246;2024-03-17T04:38:57;101081.82;;;14.27;100.00
64632;BME280;58358;50.936;0.246;2024-03-17T04:41:22;101077.39;;;14.17;100.00
64632;BME280;58358;50.936;0.246;2024-03-17T04:43:47;101078.72;;;13.88;100.00
64632;BME280;58358;50.936;0.246;2024-03-17T04:46:13;101082.06;;;13.47;100.00
64632;BME280;58358;50.936;0.246;2024-03-17T04:48:38;101082.23;;;13.04;100.00
64632;BME280;58358;50.936;0.246;2024-03-17T04:51:04;101081.97;;;13.15;100.00
64632;BME280;58358;50.936;0.246;2024-03-17T04:53:29;101083.80;;;13.48;100.00
64632;BME280;58358;50.936;0.246;2024-03-17T04:55:59;101075.68;;;14.02;100.00
64632;BME280;58358;50.936;0.246;2024-03-17T04:58:20;101074.39;;;14.16;100.00
64632;BME280;58358;50.936;0.246;2024-03-17T05:00:45;101074.32;;;14.40;100.00
64632;BME280;58358;50.936;0.246;2024-03-17T05:03:10;101074.27;;;13.08;100.00
64632;BME280;58358;50.936;0.246;2024-03-17T05:05:36;101072.67;;;13.75;100.00
64632;BME280;58358;50.936;0.246;2024-03-17T05:08:02;101076.82;;;13.15;100.00
64632;BME280;58358;50.936;0.246;2024-03-17T05:10:28;101072.61;;;13.33;100.00
64632;BME280;58358;50.936;0.246;2024-03-17T05:12:53;101067.43;;;13.63;100.00
64632;BME280;58358;50.936;0.246;2024-03-17T05:15:18;101064.67;;;13.92;100.00
64632;BME280;58358;50.936;0.246;2024-03-17T05:17:43;101068.37;;;14.16;100.00
64632;BME280;58358;50.936;0.246;2024-03-17T05:20:09;101072.05;;;13.58;100.00
64632;BME280;58358;50.936;0.246;2024-03-17T05:22:34;101074.45;;;13.61;100.00
64632;BME280;58358;50.936;0.246;2024-03-17T05:25:00;101072.12;;;13.87;100.00
64632;BME280;58358;50.936;0.246;2024-03-17T05:27:25;101073.57;;;13.35;100.00
64632;BME280;58358;50.936;0.246;2024-03-17T05:29:51;101074.31;;;12.75;100.00
64632;BME280;58358;50.936;0.246;2024-03-17T05:32:16;101072.85;;;13.44;100.00
64632;BME280;58358;50.936;0.246;2024-03-17T05:34:42;101068.14;;;13.76;100.00
64632;BME280;58358;50.936;0.246;2024-03-17T05:37:08;101071.33;;;13.33;100.00
64632;BME280;58358;50.936;0.246;2024-03-17T05:39:33;101071.55;;;12.72;100.00
64632;BME280;58358;50.936;0.246;2024-03-17T05:41:58;101064.23;;;13.94;100.00
64632;BME280;58358;50.936;0.246;2024-03-17T05:44:24;101067.82;;;13.68;100.00
64632;BME280;58358;50.936;0.246;2024-03-17T05:46:50;101068.85;;;13.41;100.00
64632;BME280;58358;50.936;0.246;2024-03-17T05:49:15;101063.43;;;14.05;100.00
64632;BME280;58358;50.936;0.246;2024-03-17T05:51:40;101057.59;;;14.30;100.00
64632;BME280;58358;50.936;0.246;2024-03-17T05:54:06;101065.74;;;13.46;100.00
64632;BME280;58358;50.936;0.246;2024-03-17T05:56:31;101059.95;;;14.12;100.00
64632;BME280;58358;50.936;0.246;2024-03-17T05:58:56;101058.04;;;13.91;100.00
64632;BME280;58358;50.936;0.246;2024-03-17T06:01:22;101067.69;;;13.15;100.00
64632;BME280;58358;50.936;0.246;2024-03-17T06:03:48;101066.32;;;13.02;100.00
64632;BME280;58358;50.936;0.246;2024-03-17T06:06:14;101066.99;;;13.27;100.00
64632;BME280;58358;50.936;0.246;2024-03-17T06:08:39;101067.90;;;12.99;100.00
64632;BME280;58358;50.936;0.246;2024-03-17T06:11:05;101066.81;;;13.32;100.00
64632;BME280;58358;50.936;0.246;2024-03-17T06:13:31;101071.42;;;12.60;100.00
64632;BME280;58358;50.936;0.246;2024-03-17T06:15:56;101070.11;;;11.83;100.00
64632;BME280;58358;50.936;0.246;2024-03-17T06:18:22;101069.90;;;11.93;100.00
64632;BME280;58358;50.936;0.246;2024-03-17T06:20:48;101064.09;;;11.32;100.00
64632;BME280;58358;50.936;0.246;2024-03-17T06:23:14;101062.57;;;11.16;100.00
64632;BME280;58358;50.936;0.246;2024-03-17T06:25:40;101065.27;;;11.16;100.00
64632;BME280;58358;50.936;0.246;2024-03-17T06:28:04;101063.90;;;10.24;100.00
64632;BME280;58358;50.936;0.246;2024-03-17T06:30:29;101063.82;;;11.27;100.00
64632;BME280;58358;50.936;0.246;2024-03-17T06:32:55;101065.11;;;10.54;100.00
64632;BME280;58358;50.936;0.246;2024-03-17T06:35:21;101062.93;;;9.70;100.00
64632;BME280;58358;50.936;0.246;2024-03-17T06:37:46;101057.25;;;10.06;100.00
64632;BME280;58358;50.936;0.246;2024-03-17T06:40:13;101055.58;;;11.36;100.00
64632;BME280;58358;50.936;0.246;2024-03-17T06:42:37;101058.67;;;10.63;100.00
64632;BME280;58358;50.936;0.246;2024-03-17T06:45:04;101059.63;;;10.85;100.00
64632;BME280;58358;50.936;0.246;2024-03-17T06:47:28;101056.26;;;10.66;100.00
64632;BME280;58358;50.936;0.246;2024-03-17T06:49:53;101052.95;;;10.24;100.00
64632;BME280;58358;50.936;0.246;2024-03-17T06:52:19;101051.76;;;10.72;100.00
64632;BME280;58358;50.936;0.246;2024-03-17T06:54:47;101047.67;;;11.24;100.00
64632;BME280;58358;50.936;0.246;2024-03-17T06:57:10;101048.18;;;11.23;100.00
64632;BME280;58358;50.936;0.246;2024-03-17T06:59:35;101046.68;;;11.10;100.00
64632;BME280;58358;50.936;0.246;2024-03-17T07:02:01;101043.57;;;11.22;100.00
64632;BME280;58358;50.936;0.246;2024-03-17T07:04:27;101046.68;;;12.06;100.00
64632;BME280;58358;50.936;0.246;2024-03-17T07:06:52;101046.00;;;11.90;100.00
64632;BME280;58358;50.936;0.246;2024-03-17T07:09:18;101045.18;;;12.07;100.00
64632;BME280;58358;50.936;0.246;2024-03-17T07:11:43;101042.45;;;12.24;100.00
64632;BME280;58358;50.936;0.246;2024-03-17T07:14:09;101039.72;;;11.13;100.00
64632;BME280;58358;50.936;0.246;2024-03-17T07:16:35;101037.04;;;10.19;100.00
64632;BME280;58358;50.936;0.246;2024-03-17T07:19:01;101033.42;;;11.43;100.00
64632;BME280;58358;50.936;0.246;2024-03-17T07:21:27;101037.87;;;11.86;100.00
64632;BME280;58358;50.936;0.246;2024-03-17T07:23:52;101040.19;;;10.41;100.00
64632;BME280;58358;50.936;0.246;2024-03-17T07:26:17;101035.01;;;11.33;100.00
64632;BME280;58358;50.936;0.246;2024-03-17T07:28:43;101035.28;;;10.90;100.00
64632;BME280;58358;50.936;0.246;2024-03-17T07:31:09;101030.32;;;11.32;100.00
64632;BME280;58358;50.936;0.246;2024-03-17T07:33:34;101029.65;;;11.06;100.00
64632;BME280;58358;50.936;0.246;2024-03-17T07:36:01;101025.75;;;12.06;100.00
64632;BME280;58358;50.936;0.246;2024-03-17T07:38:27;101024.75;;;12.07;100.00
64632;BME280;58358;50.936;0.246;2024-03-17T07:40:58;101026.08;;;11.20;100.00
64632;BME280;58358;50.936;0.246;2024-03-17T07:43:16;101025.09;;;11.86;100.00
64632;BME280;58358;50.936;0.246;2024-03-17T07:45:42;101024.93;;;11.07;100.00
64632;BME280;58358;50.936;0.246;2024-03-17T07:48:07;101018.55;;;11.56;100.00
64632;BME280;58358;50.936;0.246;2024-03-17T07:50:33;101017.85;;;11.62;100.00
64632;BME280;58358;50.936;0.246;2024-03-17T07:52:58;101010.86;;;10.37;100.00
64632;BME280;58358;50.936;0.246;2024-03-17T07:55:24;101006.38;;;11.49;100.00
64632;BME280;58358;50.936;0.246;2024-03-17T07:57:50;101010.70;;;12.67;100.00
64632;BME280;58358;50.936;0.246;2024-03-17T08:00:16;101009.41;;;12.19;100.00
64632;BME280;58358;50.936;0.246;2024-03-17T08:02:46;101008.63;;;12.39;100.00
64632;BME280;58358;50.936;0.246;2024-03-17T08:05:07;101007.41;;;11.93;100.00
64632;BME280;58358;50.936;0.246;2024-03-17T08:07:32;101007.98;;;11.73;100.00
64632;BME280;58358;50.936;0.246;2024-03-17T08:09:57;101005.78;;;12.00;100.00
64632;BME280;58358;50.936;0.246;2024-03-17T08:12:23;101002.26;;;11.96;100.00
64632;BME280;58358;50.936;0.246;2024-03-17T08:14:48;101002.05;;;11.73;100.00
64632;BME280;58358;50.936;0.246;2024-03-17T08:17:14;101001.82;;;12.21;100.00
64632;BME280;58358;50.936;0.246;2024-03-17T08:19:39;100999.62;;;12.03;100.00
64632;BME280;58358;50.936;0.246;2024-03-17T08:22:05;100998.40;;;12.34;100.00
64632;BME280;58358;50.936;0.246;2024-03-17T08:24:32;100998.62;;;12.17;100.00
64632;BME280;58358;50.936;0.246;2024-03-17T08:26:56;100995.78;;;12.24;100.00
64632;BME280;58358;50.936;0.246;2024-03-17T08:29:22;100992.81;;;10.84;100.00
64632;BME280;58358;50.936;0.246;2024-03-17T08:31:47;100997.09;;;11.98;100.00
64632;BME280;58358;50.936;0.246;2024-03-17T08:34:13;100994.25;;;12.19;100.00
64632;BME280;58358;50.936;0.246;2024-03-17T08:36:39;100992.75;;;10.89;100.00
64632;BME280;58358;50.936;0.246;2024-03-17T08:39:03;100989.26;;;11.11;100.00
64632;BME280;58358;50.936;0.246;2024-03-17T08:41:29;100993.73;;;9.64;100.00
64632;BME280;58358;50.936;0.246;2024-03-17T08:43:55;100993.16;;;10.16;100.00
64632;BME280;58358;50.936;0.246;2024-03-17T08:46:21;100990.65;;;11.12;100.00
64632;BME280;58358;50.936;0.246;2024-03-17T08:48:46;100989.90;;;11.03;100.00
64632;BME280;58358;50.936;0.246;2024-03-17T08:51:12;100993.65;;;11.10;100.00
64632;BME280;58358;50.936;0.246;2024-03-17T08:53:37;100988.25;;;10.56;100.00
64632;BME280;58358;50.936;0.246;2024-03-17T08:56:03;100987.61;;;10.60;100.00
64632;BME280;58358;50.936;0.246;2024-03-17T08:58:28;100984.07;;;9.70;100.00
64632;BME280;58358;50.936;0.246;2024-03-17T09:00:53;100981.33;;;10.27;100.00
64632;BME280;58358;50.936;0.246;2024-03-17T09:03:19;100979.08;;;9.66;100.00
64632;BME280;58358;50.936;0.246;2024-03-17T09:05:46;100978.66;;;10.89;100.00
64632;BME280;58358;50.936;0.246;2024-03-17T09:08:16;100975.15;;;11.31;100.00
64632;BME280;58358;50.936;0.246;2024-03-17T09:10:39;100976.26;;;11.10;100.00
64632;BME280;58358;50.936;0.246;2024-03-17T09:13:01;100974.40;;;11.31;100.00
64632;BME280;58358;50.936;0.246;2024-03-17T09:15:27;100978.10;;;10.39;100.00
64632;BME280;58358;50.936;0.246;2024-03-17T09:17:52;100973.11;;;10.57;100.00
64632;BME280;58358;50.936;0.246;2024-03-17T09:20:17;100967.80;;;9.96;100.00
64632;BME280;58358;50.936;0.246;2024-03-17T09:22:43;100961.89;;;9.66;100.00
64632;BME280;58358;50.936;0.246;2024-03-17T09:25:09;100961.43;;;10.18;100.00
64632;BME280;58358;50.936;0.246;2024-03-17T09:27:34;100960.42;;;10.33;100.00
64632;BME280;58358;50.936;0.246;2024-03-17T09:30:00;100960.95;;;10.50;100.00
64632;BME280;58358;50.936;0.246;2024-03-17T09:32:25;100954.49;;;10.01;100.00
64632;BME280;58358;50.936;0.246;2024-03-17T09:34:51;100953.26;;;10.59;100.00
64632;BME280;58358;50.936;0.246;2024-03-17T09:37:16;100950.69;;;10.29;100.00
64632;BME280;58358;50.936;0.246;2024-03-17T09:39:41;100950.19;;;10.18;100.00
64632;BME280;58358;50.936;0.246;2024-03-17T09:42:15;100946.57;;;9.33;100.00
64632;BME280;58358;50.936;0.246;2024-03-17T09:44:33;100942.76;;;9.40;100.00
64632;BME280;58358;50.936;0.246;2024-03-17T09:46:59;100941.55;;;8.99;100.00
64632;BME280;58358;50.936;0.246;2024-03-17T09:49:24;100942.37;;;9.52;100.00
64632;BME280;58358;50.936;0.246;2024-03-17T09:51:54;100944.80;;;9.78;100.00
64632;BME280;58358;50.936;0.246;2024-03-17T09:54:18;100944.27;;;9.51;100.00
64632;BME280;58358;50.936;0.246;2024-03-17T09:56:41;100943.81;;;9.91;100.00
64632;BME280;58358;50.936;0.246;2024-03-17T09:59:08;100945.58;;;10.01;100.00
64632;BME280;58358;50.936;0.246;2024-03-17T10:01:33;100944.83;;;9.84;100.00
64632;BME280;58358;50.936;0.246;2024-03-17T10:03:58;100941.76;;;10.84;100.00
64632;BME280;58358;50.936;0.246;2024-03-17T10:06:25;100945.69;;;9.61;100.00
64632;BME280;58358;50.936;0.246;2024-03-17T10:08:51;100936.17;;;10.69;100.00
64632;BME280;58358;50.936;0.246;2024-03-17T10:11:17;100935.37;;;9.37;100.00
64632;BME280;58358;50.936;0.246;2024-03-17T10:13:41;100935.94;;;9.44;100.00
64632;BME280;58358;50.936;0.246;2024-03-17T10:16:21;100936.10;;;9.74;100.00
64632;BME280;58358;50.936;0.246;2024-03-17T10:18:32;100940.79;;;9.39;100.00
64632;BME280;58358;50.936;0.246;2024-03-17T10:20:58;100933.02;;;10.58;100.00
64632;BME280;58358;50.936;0.246;2024-03-17T10:23:24;100929.89;;;8.78;100.00
64632;BME280;58358;50.936;0.246;2024-03-17T10:25:50;100927.25;;;10.89;100.00
64632;BME280;58358;50.936;0.246;2024-03-17T10:28:18;100919.03;;;11.04;100.00
64632;BME280;58358;50.936;0.246;2024-03-17T10:30:42;100921.29;;;10.48;100.00
64632;BME280;58358;50.936;0.246;2024-03-17T10:33:07;100923.59;;;9.89;100.00
64632;BME280;58358;50.936;0.246;2024-03-17T10:35:33;100924.60;;;8.98;100.00
64632;BME280;58358;50.936;0.246;2024-03-17T10:37:59;100931.47;;;9.76;100.00
64632;BME280;58358;50.936;0.246;2024-03-17T10:40:25;100926.51;;;11.12;100.00
64632;BME280;58358;50.936;0.246;2024-03-17T10:42:49;100919.90;;;11.05;100.00
64632;BME280;58358;50.936;0.246;2024-03-17T10:45:15;100920.81;;;10.89;100.00
64632;BME280;58358;50.936;0.246;2024-03-17T10:47:42;100917.72;;;10.50;100.00
64632;BME280;58358;50.936;0.246;2024-03-17T10:50:12;100919.68;;;10.61;100.00
64632;BME280;58358;50.936;0.246;2024-03-17T10:52:33;100913.61;;;9.40;100.00
64632;BME280;58358;50.936;0.246;2024-03-17T10:55:05;100922.42;;;9.59;100.00
64632;BME280;58358;50.936;0.246;2024-03-17T10:57:30;100911.31;;;10.18;100.00
64632;BME280;58358;50.936;0.246;2024-03-17T10:59:50;100909.09;;;10.04;100.00
64632;BME280;58358;50.936;0.246;2024-03-17T11:02:21;100912.62;;;10.33;100.00
64632;BME280;58358;50.936;0.246;2024-03-17T11:04:45;100912.86;;;9.49;100.00
64632;BME280;58358;50.936;0.246;2024-03-17T11:07:14;100913.61;;;10.20;100.00
64632;BME280;58358;50.936;0.246;2024-03-17T11:09:32;100912.11;;;10.37;100.00
64632;BME280;58358;50.936;0.246;2024-03-17T11:11:58;100915.66;;;9.37;100.00
64632;BME280;58358;50.936;0.246;2024-03-17T11:14:23;100913.59;;;9.50;100.00
64632;BME280;58358;50.936;0.246;2024-03-17T11:16:49;100914.77;;;9.43;100.00
64632;BME280;58358;50.936;0.246;2024-03-17T11:19:16;100913.28;;;8.98;100.00
64632;BME280;58358;50.936;0.246;2024-03-17T11:21:40;100908.43;;;9.57;100.00
64632;BME280;58358;50.936;0.246;2024-03-17T11:24:06;100902.21;;;9.40;100.00
64632;BME280;58358;50.936;0.246;2024-03-17T11:26:33;100907.29;;;9.32;100.00
64632;BME280;58358;50.936;0.246;2024-03-17T11:28:58;100904.03;;;10.64;100.00
64632;BME280;58358;50.936;0.246;2024-03-17T11:31:33;100899.91;;;10.45;100.00
64632;BME280;58358;50.936;0.246;2024-03-17T11:33:49;100899.80;;;9.65;100.00
64632;BME280;58358;50.936;0.246;2024-03-17T11:36:30;100901.40;;;9.56;100.00
64632;BME280;58358;50.936;0.246;2024-03-17T11:38:50;100896.66;;;11.57;100.00
64632;BME280;58358;50.936;0.246;2024-03-17T11:43:32;100889.35;;;11.00;100.00
64632;BME280;58358;50.936;0.246;2024-03-17T11:45:58;100894.14;;;11.26;100.00
64632;BME280;58358;50.936;0.246;2024-03-17T11:48:24;100891.96;;;10.94;100.00
64632;BME280;58358;50.936;0.246;2024-03-17T11:50:50;100893.13;;;10.50;100.00
64632;BME280;58358;50.936;0.246;2024-03-17T11:53:15;100894.10;;;9.93;100.00
64632;BME280;58358;50.936;0.246;2024-03-17T11:55:47;100896.03;;;10.45;100.00
64632;BME280;58358;50.936;0.246;2024-03-17T11:58:11;100897.37;;;10.44;100.00
64632;BME280;58358;50.936;0.246;2024-03-17T12:00:32;100896.52;;;10.21;100.00
64632;BME280;58358;50.936;0.246;2024-03-17T12:02:57;100891.76;;;10.61;100.00
64632;BME280;58358;50.936;0.246;2024-03-17T12:05:23;100892.51;;;11.29;100.00
64632;BME280;58358;50.936;0.246;2024-03-17T12:07:48;100893.90;;;10.45;100.00
64632;BME280;58358;50.936;0.246;2024-03-17T12:10:14;100886.14;;;10.81;100.00
64632;BME280;58358;50.936;0.246;2024-03-17T12:12:39;100888.30;;;11.68;100.00
64632;BME280;58358;50.936;0.246;2024-03-17T12:15:16;100896.49;;;11.17;100.00
64632;BME280;58358;50.936;0.246;2024-03-17T12:17:31;100899.19;;;9.57;100.00
64632;BME280;58358;50.936;0.246;2024-03-17T12:19:57;100896.02;;;10.32;100.00
64632;BME280;58358;50.936;0.246;2024-03-17T12:22:23;100891.75;;;10.48;100.00
64632;BME280;58358;50.936;0.246;2024-03-17T12:24:48;100891.74;;;10.34;100.00
64632;BME280;58358;50.936;0.246;2024-03-17T12:27:18;100890.91;;;10.68;100.00
64632;BME280;58358;50.936;0.246;2024-03-17T12:29:39;100891.91;;;11.14;100.00
64632;BME280;58358;50.936;0.246;2024-03-17T12:32:06;100888.10;;;10.87;100.00